METAR stanice u blizini

 

LYBE - Beograd / Surčin, Srbija
Ažurirano: 15/11/2018 00:30
Vedro
Vedro
 Pravac vetra ZJZ
Vetar: ZJZ 7 km/h
Temperatura: 6°C
Osećaj hladnoće: 4°C
Tačka rose: 2°C
Vlažnost: 76%
Pritisak: 1028 hPa
Pregled: Vedro
Vidljivost: greater than 10 km
2018/11/14 23:30 LYBE 142330Z 24004KT CAVOK 06/02 Q1028 NOSIG
LYBT - Beograd / Batajnica, Srbija
Ažurirano: 15/11/2018 00:30
Vedro
Vedro
 Pravac vetra ZSZ
Vetar: ZSZ 13 km/h
Temperatura: 6°C
Osećaj hladnoće: 3°C
Tačka rose: 2°C
Vlažnost: 76%
Pritisak: 1028 hPa
Pregled: Vedro
Vidljivost: greater than 10 km
2018/11/14 23:30 LYBT 142330Z 30007KT CAVOK 06/02 Q1028 NOSIG
LYVR - Vršac, Srbija
Ažurirano: 15/11/2018 00:30
Partly Cloudy
Partly Cloudy
 Pravac vetra SI
Vetar: SI 7 km/h
Temperatura: 6°C
Osećaj hladnoće: 4°C
Tačka rose: 4°C
Vlažnost: 87%
Pritisak: 1027 hPa
Oblaci: Partly Cloudy
Vidljivost: 6 km
Cloud details: Partly Cloudy 1219 m
2018/11/14 23:30 LYVR 142330Z 05004KT 350V070 6000 SCT040 06/04 Q1027 NOSIG
 
LYKV - Lađevci, Srbija
Ažurirano: 15/11/2018 00:30
Partly Cloudy
Partly Cloudy
 Pravac vetra ZSZ
Vetar: ZSZ 6 km/h
Temperatura: 7°C
Tačka rose: 5°C
Vlažnost: 87%
Pritisak: 1027 hPa
Oblaci: Partly Cloudy
Vidljivost: 10 km
Cloud details: Partly Cloudy 1219 m
2018/11/14 23:30 LYKV 142330Z 30003KT 9999 SCT040 07/05 Q1027 NOSIG
LYNI - Niš, Srbija
Ažurirano: 15/11/2018 00:30
Mist, Delimično oblačno
Mist, Delimično oblačno
 Pravac vetra varies
Vetar: varies 4 km/h
Temperatura: 6°C
Tačka rose: 5°C
Vlažnost: 93%
Pritisak: 1026 hPa
Pregled: Mist
Oblaci: Partly Cloudy
Vidljivost: 5 km
Cloud details: Partly Cloudy 701 m
2018/11/14 23:30 LYNI 142330Z VRB02KT 5000 BR SCT023 06/05 Q1026 NOSIG
BKPR - Priština, Srbija
Ažurirano: 15/11/2018 00:30
Vedro
Vedro
 Pravac vetra calm
Vetar: Tišina
Temperatura: 4°C
Tačka rose: 0°C
Vlažnost: 75%
Pritisak: 1026 hPa
Pregled: Vedro
Vidljivost: greater than 10 km
2018/11/14 23:30 BKPR 142330Z 00000KT CAVOK 04/00 Q1026 NOSIG RMK 17010095
 
LHPP - Pecs / Pogany, Hungary
Ažurirano: 14/11/2018 17:45
NOT Current
Vedro
Vedro
 Pravac vetra S
Vetar: S 15 km/h
Temperatura: 11°C
Tačka rose: 2°C
Vlažnost: 54%
Pritisak: 1029 hPa
Pregled: Vedro
Vidljivost: greater than 10 km
2018/11/14 16:45 LHPP 141645Z 35008KT CAVOK 11/02 Q1029
LHUD - Szeged, Hungary
Ažurirano: 14/11/2018 23:45
Vedro
Vedro
 Pravac vetra SSZ
Vetar: SSZ 9 km/h
Temperatura: 4°C
Osećaj hladnoće: 2°C
Tačka rose: 2°C
Vlažnost: 87%
Pritisak: 1029 hPa
Pregled: Vedro
Vidljivost: greater than 10 km
2018/11/14 22:45 LHUD 142245Z 34005KT CAVOK 04/02 Q1029
LRTR - Timisoara, Romania
Ažurirano: 15/11/2018 00:30
Vedro
Vedro
 Pravac vetra SSI
Vetar: SSI 15 km/h
Temperatura: 7°C
Osećaj hladnoće: 4°C
Tačka rose: 3°C
Vlažnost: 76%
Pritisak: 1027 hPa
Pregled: Vedro
Vidljivost: greater than 10 km
2018/11/14 23:30 LRTR 142330Z 02008KT CAVOK 07/03 Q1027
 
LRCV - Craiova, Romania
Ažurirano: 15/11/2018 00:30
Mist, Delimično oblačno
Mist, Delimično oblačno
 Pravac vetra S
Vetar: S 9 km/h
Temperatura: 7°C
Osećaj hladnoće: 6°C
Tačka rose: 5°C
Vlažnost: 87%
Pritisak: 1023 hPa
Pregled: Mist
Oblaci: Partly Cloudy
Vidljivost: 5 km
2018/11/14 23:30 LRCV 142330Z 01005KT 5000 BR NSC 07/05 Q1023
LBSF - Sofia, Bulgaria
Ažurirano: 15/11/2018 00:30
Partly Cloudy
Partly Cloudy
 Pravac vetra Z
Vetar: Z 19 km/h
Temperatura: 8°C
Osećaj hladnoće: 4°C
Tačka rose: 5°C
Vlažnost: 82%
Pritisak: 1023 hPa
Oblaci: Partly Cloudy
Vidljivost: 10 km
Cloud details: Partly Cloudy 1311 m
2018/11/14 23:30 LBSF 142330Z 27010KT 9999 SCT043 08/05 Q1023 NOSIG
LWSK - Skoplje, Makedonija
Ažurirano: 15/11/2018 00:30
Mostly Cloudy
Mostly Cloudy
 Pravac vetra JI
Vetar: JI 4 km/h
Temperatura: 6°C
Tačka rose: 4°C
Vlažnost: 87%
Pritisak: 1026 hPa
Oblaci: Mostly Cloudy
Vidljivost: 10 km
Cloud details: Mostly Cloudy 1829 m
2018/11/14 23:30 LWSK 142330Z 14002KT 9999 BKN060 06/04 Q1026 NOSIG
 
LYPG - Podgorica, Crna Gora
Ažurirano: 15/11/2018 00:30
Vedro
Vedro
 Pravac vetra S
Vetar: S 28 km/h
Temperatura: 14°C
Tačka rose: -1°C
Vlažnost: 36%
Pritisak: 1023 hPa
Pregled: Vedro
Vidljivost: greater than 10 km
2018/11/14 23:30 LYPG 142330Z 01015KT 290V040 CAVOK 14/M01 Q1023 NOSIG
LQSA - Sarajevo, Bosna i Hercegovina
Ažurirano: 15/11/2018 00:00
Few Clouds
Few Clouds
 Pravac vetra varies
Vetar: varies 2 km/h
Temperatura: 1°C
Tačka rose: 1°C
Vlažnost: 100%
Pritisak: 1029 hPa
Oblaci: Few Clouds
Vidljivost: 8 km
Cloud details: Few Clouds 1219 m
2018/11/14 23:00 LQSA 142300Z VRB01KT 8000 FEW040 01/01 Q1029
LDOS - Osijek, Hrvatksa
Ažurirano: 15/11/2018 00:30
Vedro
Vedro
 Pravac vetra Z
Vetar: Z 11 km/h
Temperatura: 1°C
Osećaj hladnoće: -2°C
Tačka rose: -1°C
Vlažnost: 87%
Pritisak: 1028 hPa
Pregled: Vedro
Vidljivost: greater than 10 km
2018/11/14 23:30 LDOS 142330Z 27006KT CAVOK 01/M01 Q1028